Home > Products > Valid Products > TAF

000
FTUS43 KDMX 100544
TAFMCW
TAF
KMCW 100544Z 1006/1106 32011KT P6SM SCT200
     FM101000 32006KT P6SM BKN060 OVC100
     FM101800 02007KT P6SM BKN060=



000
FTUS43 KDMX 100544
TAFFOD
TAF
KFOD 100544Z 1006/1106 33004KT P6SM BKN050
     FM101300 VRB03KT 3SM -SN OVC030
     FM102000 08007KT 5SM -SN BKN030 OVC060
     FM110000 06004KT P6SM BKN040=



000
FTUS43 KDMX 100544
TAFDSM
TAF
KDSM 100544Z 1006/1106 32007KT P6SM BKN050
     FM101400 VRB04KT 2SM -SN OVC040
     FM102200 07006KT 5SM -SN BKN020 OVC040
     FM110100 06007KT P6SM BKN035=



000
FTUS43 KDMX 100544
TAFOTM
TAF
KOTM 100544Z 1006/1106 31014KT P6SM SKC
     FM101200 30007KT P6SM BKN120
     FM101800 VRB05KT 5SM -SN BKN025 OVC070
     FM110000 03008KT P6SM BKN040=



000
FTUS43 KDMX 100544
TAFALO
TAF
KALO 100544Z 1006/1106 31007KT P6SM SCT200
     FM101100 32007KT P6SM BKN120
     FM102200 02006KT P6SM BKN070=



000
FTUS43 KDMX 100544
TAFMCW
TAF
KMCW 100544Z 1006/1106 32011KT P6SM SCT200
     FM101000 32006KT P6SM BKN060 OVC100
     FM101800 02007KT P6SM BKN060=



000
FTUS43 KDMX 100544
TAFALO
TAF
KALO 100544Z 1006/1106 31007KT P6SM SCT200
     FM101100 32007KT P6SM BKN120
     FM102200 02006KT P6SM BKN070=



000
FTUS43 KDMX 100544
TAFDSM
TAF
KDSM 100544Z 1006/1106 32007KT P6SM BKN050
     FM101400 VRB04KT 2SM -SN OVC040
     FM102200 07006KT 5SM -SN BKN020 OVC040
     FM110100 06007KT P6SM BKN035=



000
FTUS43 KDMX 100544
TAFOTM
TAF
KOTM 100544Z 1006/1106 31014KT P6SM SKC
     FM101200 30007KT P6SM BKN120
     FM101800 VRB05KT 5SM -SN BKN025 OVC070
     FM110000 03008KT P6SM BKN040=



000
FTUS43 KDMX 100544
TAFFOD
TAF
KFOD 100544Z 1006/1106 33004KT P6SM BKN050
     FM101300 VRB03KT 3SM -SN OVC030
     FM102000 08007KT 5SM -SN BKN030 OVC060
     FM110000 06004KT P6SM BKN040=



000
FTUS43 KDMX 100544
TAFDSM
TAF
KDSM 100544Z 1006/1106 32007KT P6SM BKN050
     FM101400 VRB04KT 2SM -SN OVC040
     FM102200 07006KT 5SM -SN BKN020 OVC040
     FM110100 06007KT P6SM BKN035=



000
FTUS43 KDMX 100544
TAFFOD
TAF
KFOD 100544Z 1006/1106 33004KT P6SM BKN050
     FM101300 VRB03KT 3SM -SN OVC030
     FM102000 08007KT 5SM -SN BKN030 OVC060
     FM110000 06004KT P6SM BKN040=



000
FTUS43 KDMX 100544
TAFALO
TAF
KALO 100544Z 1006/1106 31007KT P6SM SCT200
     FM101100 32007KT P6SM BKN120
     FM102200 02006KT P6SM BKN070=



000
FTUS43 KDMX 100544
TAFMCW
TAF
KMCW 100544Z 1006/1106 32011KT P6SM SCT200
     FM101000 32006KT P6SM BKN060 OVC100
     FM101800 02007KT P6SM BKN060=



000
FTUS43 KDMX 100544
TAFOTM
TAF
KOTM 100544Z 1006/1106 31014KT P6SM SKC
     FM101200 30007KT P6SM BKN120
     FM101800 VRB05KT 5SM -SN BKN025 OVC070
     FM110000 03008KT P6SM BKN040=



000
FTUS43 KDMX 092340
TAFALO
TAF
KALO 092340Z 1000/1024 32014KT P6SM SKC
     FM101000 31007KT P6SM BKN150
     FM101600 35007KT P6SM BKN060=



000
FTUS43 KDMX 092340
TAFMCW
TAF
KMCW 092340Z 1000/1024 32016KT P6SM SCT020
     FM100900 32010KT P6SM SCT050 BKN120
     FM101500 36007KT P6SM BKN050=



000
FTUS43 KDMX 092340
TAFDSM
TAF
KDSM 092340Z 1000/1024 32016KT P6SM FEW025
     FM100800 32007KT P6SM BKN050
     FM101600 VRB05KT 2SM -SN BKN020 OVC040
     FM102200 07006KT 5SM -SN BKN020 OVC040=



000
FTUS43 KDMX 092340
TAFOTM
TAF
KOTM 092340Z 1000/1024 32016G24KT P6SM FEW025
     FM100200 31014KT P6SM SKC
     FM101400 32007KT P6SM BKN120
     FM101800 VRB05KT 5SM -SN BKN035 OVC070=



000
FTUS43 KDMX 092340
TAFFOD
TAF
KFOD 092340Z 1000/1024 32009KT P6SM FEW025
     FM100600 33005KT P6SM BKN050
     FM101500 VRB05KT 3SM -SN OVC030
     FM102000 09006KT P6SM -SN BKN030 OVC060=



000
FTUS43 KDMX 092153 AAA
TAFALO
TAF AMD
KALO 092153Z 0922/1018 31014KT P6SM SKC
     FM101400 33007KT P6SM SKC=



000
FTUS43 KDMX 092153 AAA
TAFALO
TAF AMD
KALO 092153Z 0922/1018 31014KT P6SM SKC
     FM101400 33007KT P6SM SKC=



000
FTUS43 KDMX 092153 AAA
TAFALO
TAF AMD
KALO 092153Z 0922/1018 31014KT P6SM SKC
     FM101400 33007KT P6SM SKC=



000
FTUS43 KDMX 091720
TAFOTM
TAF
KOTM 091720Z 0918/1018 32026G30KT 3SM -SN OVC021
     FM091930 32015KT P6SM SKC
     FM101100 32010KT P6SM SCT250=



000
FTUS43 KDMX 091720
TAFALO
TAF
KALO 091720Z 0918/1018 33019KT 5SM HZ BKN023
     FM092000 34020KT 5SM HZ SKC
     FM100000 33016KT P6SM SKC
     FM101400 33007KT P6SM SKC=



000
FTUS43 KDMX 091720
TAFALO
TAF
KALO 091720Z 0918/1018 33019KT 5SM HZ BKN023
     FM092000 34020KT 5SM HZ SKC
     FM100000 33016KT P6SM SKC
     FM101400 33007KT P6SM SKC=



000
FTUS43 KDMX 091720
TAFALO
TAF
KALO 091720Z 0918/1018 33019KT 5SM HZ BKN023
     FM092000 34020KT 5SM HZ SKC
     FM100000 33016KT P6SM SKC
     FM101400 33007KT P6SM SKC=



000
FTUS43 KDMX 091720
TAFOTM
TAF
KOTM 091720Z 0918/1018 32026G30KT 3SM -SN OVC021
     FM091930 32015KT P6SM SKC
     FM101100 32010KT P6SM SCT250=



000
FTUS43 KDMX 091720
TAFDSM
TAF
KDSM 091720Z 0918/1018 32016G24KT P6SM SKC
     FM100200 33008KT P6SM SKC=



000
FTUS43 KDMX 091720
TAFMCW
TAF
KMCW 091720Z 0918/1018 33024KT 6SM HZ SKC
     FM100000 32014KT P6SM SKC
     FM101300 33007KT P6SM SKC=



000
FTUS43 KDMX 091720
TAFMCW
TAF
KMCW 091720Z 0918/1018 33024KT 6SM HZ SKC
     FM100000 32014KT P6SM SKC
     FM101300 33007KT P6SM SKC=



000
FTUS43 KDMX 091720
TAFDSM
TAF
KDSM 091720Z 0918/1018 32016G24KT P6SM SKC
     FM100200 33008KT P6SM SKC=



000
FTUS43 KDMX 091720
TAFMCW
TAF
KMCW 091720Z 0918/1018 33024KT 6SM HZ SKC
     FM100000 32014KT P6SM SKC
     FM101300 33007KT P6SM SKC=



000
FTUS43 KDMX 091720
TAFFOD
TAF
KFOD 091720Z 0918/1018 33014G23KT P6SM SKC
     FM100000 33011KT P6SM FEW250
     FM100800 VRB06KT P6SM SCT250=



000
FTUS43 KDMX 091720
TAFDSM
TAF
KDSM 091720Z 0918/1018 32016G24KT P6SM SKC
     FM100200 33008KT P6SM SKC=



000
FTUS43 KDMX 091720
TAFOTM
TAF
KOTM 091720Z 0918/1018 32026G30KT 3SM -SN OVC021
     FM091930 32015KT P6SM SKC
     FM101100 32010KT P6SM SCT250=



000
FTUS43 KDMX 091720
TAFFOD
TAF
KFOD 091720Z 0918/1018 33014G23KT P6SM SKC
     FM100000 33011KT P6SM FEW250
     FM100800 VRB06KT P6SM SCT250=



000
FTUS43 KDMX 091720
TAFFOD
TAF
KFOD 091720Z 0918/1018 33014G23KT P6SM SKC
     FM100000 33011KT P6SM FEW250
     FM100800 VRB06KT P6SM SCT250=



000
FTUS43 KDMX 091125
TAFFOD
TAF
KFOD 091125Z 0912/1012 33010G19KT P6SM BKN050
     FM091500 33014G22KT P6SM SCT040
     FM092300 33006KT P6SM SKC=



000
FTUS43 KDMX 091125
TAFMCW
TAF
KMCW 091125Z 0912/1012 33019KT 6SM BLSN SCT015 BKN050
      TEMPO 0912/0915 2SM BLSN BKN015
     FM091500 33020G27KT 6SM BLSN BKN050
     FM092300 32016KT P6SM SCT050
     FM100600 32010KT P6SM SKC=



000
FTUS43 KDMX 091125
TAFDSM
TAF
KDSM 091125Z 0912/1012 33017G25KT 6SM -SN OVC035
      TEMPO 0912/0914 4SM -SN SCT015 BKN025
     FM091500 33018G25KT P6SM BKN040
     FM091800 33018G25KT P6SM SCT040
     FM092300 32012KT P6SM SKC
     FM100600 32008KT P6SM SKC=



000
FTUS43 KDMX 091125
TAFALO
TAF
KALO 091125Z 0912/1012 32019G25KT P6SM SCT014 OVC050
      TEMPO 0912/0916 5SM -SN BLSN BKN014
     FM091700 33017G25KT P6SM BKN050
     FM092300 31015KT P6SM SCT035
     FM100600 31008KT P6SM SKC=



000
FTUS43 KDMX 091125
TAFOTM
TAF
KOTM 091125Z 0912/1012 32019G25KT P6SM -SN SCT025 OVC050
      TEMPO 0912/0916 4SM -SN BKN025
     FM091600 32019G25KT P6SM BKN050
     FM092300 31017KT P6SM SCT040
     FM100600 31010KT P6SM SKC=



000
FTUS43 KDMX 090803 AAA
TAFALO
TAF AMD
KALO 090803Z 0908/1006 32019G25KT 6SM -SN BLSN SCT014 OVC035
      TEMPO 0908/0912 4SM -SN BLSN BKN014
     FM091700 33023G32KT 6SM BLSN SCT025 BKN035
     FM092100 32016KT P6SM FEW025=



000
FTUS43 KDMX 090803 AAA
TAFALO
TAF AMD
KALO 090803Z 0908/1006 32019G25KT 6SM -SN BLSN SCT014 OVC035
      TEMPO 0908/0912 4SM -SN BLSN BKN014
     FM091700 33023G32KT 6SM BLSN SCT025 BKN035
     FM092100 32016KT P6SM FEW025=



000
FTUS43 KDMX 090801 AAA
TAFOTM
TAF AMD
KOTM 090801Z 0908/1006 32019G26KT 6SM -SN SCT015 OVC035
      TEMPO 0908/0912 3SM -SN BKN015
     FM091200 32018G24KT 6SM -SN BKN030
     FM091500 32021G28KT P6SM OVC040
     FM091900 32020G26KT P6SM SCT030=



000
FTUS43 KDMX 090800 AAA
TAFDSM
TAF AMD
KDSM 090800Z 0908/1006 33016G23KT 6SM -SN OVC035
      TEMPO 0908/0911 2SM -SN SCT010 BKN015
     FM091100 33016G22KT P6SM SCT018 BKN040
     FM091800 33018G25KT P6SM SCT030
     FM092200 33017KT P6SM SKC=



000
FTUS43 KDMX 090759 AAA
TAFMCW
TAF AMD
KMCW 090759Z 0908/1006 33021G28KT 4SM -SN BLSN SCT014 OVC050
      TEMPO 0908/0912 2SM BLSN
     FM091200 33021G30KT 6SM BLSN SCT015 BKN050
     FM091700 33023G32KT 6SM BLSN SCT025 BKN035
     FM092300 32016KT P6SM SCT035=



000
FTUS43 KDMX 090759 AAA
TAFMCW
TAF AMD
KMCW 090759Z 0908/1006 33021G28KT 4SM -SN BLSN SCT014 OVC050
      TEMPO 0908/0912 2SM BLSN
     FM091200 33021G30KT 6SM BLSN SCT015 BKN050
     FM091700 33023G32KT 6SM BLSN SCT025 BKN035
     FM092300 32016KT P6SM SCT035=



000
FTUS43 KDMX 090729 AAA
TAFFOD
TAF AMD
KFOD 090729Z 0907/1006 33011G23KT P6SM SCT025 OVC035
      TEMPO 0907/0910 BKN025
     FM091200 33010G18KT P6SM SCT035 SCT130
     FM091500 33014G22KT P6SM SCT025
     FM092300 32010KT P6SM SKC=



000
FTUS43 KDMX 090529
TAFFOD
TAF
KFOD 090529Z 0906/1006 33011G23KT P6SM OVC027
     FM091200 33010G18KT P6SM SCT025 SCT130
     FM091500 33014G22KT P6SM SCT025
     FM092300 32010KT P6SM SKC=



000
FTUS43 KDMX 090529
TAFOTM
TAF
KOTM 090529Z 0906/1006 32015G22KT 5SM -SN SCT018 OVC025
     FM090700 32018KT 6SM -SHSN BKN018 OVC025
     FM091500 32021G28KT P6SM OVC025
     FM091900 32020G26KT P6SM SCT025=



000
FTUS43 KDMX 090529
TAFDSM
TAF
KDSM 090529Z 0906/1006 33019G29KT 6SM -SN OVC026
     FM091100 33016G22KT P6SM SCT018 BKN025
     FM091800 33018G25KT P6SM SCT025
     FM092200 33017KT P6SM SKC=



000
FTUS43 KDMX 090529
TAFMCW
TAF
KMCW 090529Z 0906/1006 33022G30KT 3SM -SN BLSN OVC014
     FM090800 33025G33KT 3SM -SN BLSN SCT015 BKN025
     FM091100 33024G30KT 5SM BLSN SCT015 BKN025
     FM091700 33023G32KT 6SM BLSN SCT025 BKN035
     FM092300 32016KT P6SM SCT035=



000
FTUS43 KDMX 090529
TAFALO
TAF
KALO 090529Z 0906/1006 32019G25KT 3SM -SN BLSN BKN014 OVC029
     FM090800 32016G22KT 5SM -SN BLSN SCT014 OVC045
     FM091300 32021G28KT 6SM -SN BLSN OVC022
     FM091900 33023G32KT 6SM BLSN SCT025 BKN035
     FM092100 32016KT P6SM FEW025=



000
FTUS43 KDMX 090529
TAFOTM
TAF
KOTM 090529Z 0906/1006 32015G22KT 5SM -SN SCT018 OVC025
     FM090700 32018KT 6SM -SHSN BKN018 OVC025
     FM091500 32021G28KT P6SM OVC025
     FM091900 32020G26KT P6SM SCT025=



000
FTUS43 KDMX 090529
TAFALO
TAF
KALO 090529Z 0906/1006 32019G25KT 3SM -SN BLSN BKN014 OVC029
     FM090800 32016G22KT 5SM -SN BLSN SCT014 OVC045
     FM091300 32021G28KT 6SM -SN BLSN OVC022
     FM091900 33023G32KT 6SM BLSN SCT025 BKN035
     FM092100 32016KT P6SM FEW025=



000
FTUS43 KDMX 090529
TAFFOD
TAF
KFOD 090529Z 0906/1006 33011G23KT P6SM OVC027
     FM091200 33010G18KT P6SM SCT025 SCT130
     FM091500 33014G22KT P6SM SCT025
     FM092300 32010KT P6SM SKC=



000
FTUS43 KDMX 090529
TAFMCW
TAF
KMCW 090529Z 0906/1006 33022G30KT 3SM -SN BLSN OVC014
     FM090800 33025G33KT 3SM -SN BLSN SCT015 BKN025
     FM091100 33024G30KT 5SM BLSN SCT015 BKN025
     FM091700 33023G32KT 6SM BLSN SCT025 BKN035
     FM092300 32016KT P6SM SCT035=



000
FTUS43 KDMX 090529
TAFDSM
TAF
KDSM 090529Z 0906/1006 33019G29KT 6SM -SN OVC026
     FM091100 33016G22KT P6SM SCT018 BKN025
     FM091800 33018G25KT P6SM SCT025
     FM092200 33017KT P6SM SKC=



000
FTUS43 KDMX 090430 AAE
TAFALO
TAF AMD
KALO 090430Z 0905/0924 32018KT 3SM -SN BLSN OVC035
     FM090600 32019G27KT 5SM -SN BLSN OVC014
     FM091500 32021G28KT 6SM -SN BLSN OVC022
     FM091800 33023G32KT 6SM BLSN SCT025 BKN035=



000
FTUS43 KDMX 090428 AAD
TAFMCW
TAF AMD
KMCW 090428Z 0904/0924 33020G29KT 1SM -SN BLSN OVC014
     FM091100 33024G30KT 5SM BLSN SCT015 BKN025
     FM091700 33023G32KT 6SM BLSN SCT025 BKN035=



000
FTUS43 KDMX 090428 AAD
TAFMCW
TAF AMD
KMCW 090428Z 0904/0924 33020G29KT 1SM -SN BLSN OVC014
     FM091100 33024G30KT 5SM BLSN SCT015 BKN025
     FM091700 33023G32KT 6SM BLSN SCT025 BKN035=



000
FTUS43 KDMX 090428 AAD
TAFMCW
TAF AMD
KMCW 090428Z 0904/0924 33020G29KT 1SM -SN BLSN OVC014
     FM091100 33024G30KT 5SM BLSN SCT015 BKN025
     FM091700 33023G32KT 6SM BLSN SCT025 BKN035=



000
FTUS43 KDMX 090302 AAD
TAFALO
TAF AMD
KALO 090302Z 0903/0924 32018KT 3SM -SN BLSN OVC025
     FM090400 32019G27KT 5SM -SN BLSN OVC014
     FM091500 32021G28KT 6SM -SN BLSN OVC022
     FM091800 33023G32KT 6SM BLSN SCT025 BKN035=



000
FTUS43 KDMX 090259 AAC
TAFMCW
TAF AMD
KMCW 090259Z 0903/0924 33023G33KT 3SM -SN BLSN OVC015
     FM091100 33024G30KT 5SM BLSN SCT015 BKN025
     FM091700 33023G32KT 6SM BLSN SCT025 BKN035=



000
FTUS43 KDMX 090259 AAC
TAFMCW
TAF AMD
KMCW 090259Z 0903/0924 33023G33KT 3SM -SN BLSN OVC015
     FM091100 33024G30KT 5SM BLSN SCT015 BKN025
     FM091700 33023G32KT 6SM BLSN SCT025 BKN035=



000
FTUS43 KDMX 090259 AAC
TAFMCW
TAF AMD
KMCW 090259Z 0903/0924 33023G33KT 3SM -SN BLSN OVC015
     FM091100 33024G30KT 5SM BLSN SCT015 BKN025
     FM091700 33023G32KT 6SM BLSN SCT025 BKN035=



000
FTUS43 KDMX 090204 AAC
TAFOTM
TAF AMD
KOTM 090204Z 0902/0924 32016G22KT 4SM -SN BLSN OVC022
     FM090400 32018KT 6SM -SN SCT018 OVC025
     FM090700 32018KT 6SM -SHSN BKN018 OVC025
     FM091500 32021G28KT 6SM BLSN OVC030=



000
FTUS43 KDMX 090202 AAB
TAFDSM
TAF AMD
KDSM 090202Z 0902/0924 33016G24KT 6SM -SN BLSN SCT023 OVC035
     FM090400 33016G24KT 6SM BLSN OVC018
     FM091400 33016G22KT P6SM SCT018 BKN025
     FM091800 33018G25KT P6SM SCT025=



000
FTUS43 KDMX 090201 AAC
TAFALO
TAF AMD
KALO 090201Z 0902/0924 33018KT 1SM -SN BLSN OVC016
     FM090400 32019G27KT 3SM -SN BLSN OVC018
     FM091500 32021G28KT 6SM -SN BLSN OVC022
     FM091800 33023G32KT 6SM BLSN SCT025 BKN035=



000
FTUS43 KDMX 090047 AAB
TAFMCW
TAF AMD
KMCW 090047Z 0901/0924 32023KT 1 1/2SM -SN BLSN BKN016 OVC025
     FM090300 33023G30KT 3SM -SN BLSN SCT016 OVC025
     FM091100 33024G30KT 5SM BLSN SCT015 BKN025
     FM091700 33023G32KT 6SM BLSN SCT025 BKN035=



000
FTUS43 KDMX 090047 AAB
TAFMCW
TAF AMD
KMCW 090047Z 0901/0924 32023KT 1 1/2SM -SN BLSN BKN016 OVC025
     FM090300 33023G30KT 3SM -SN BLSN SCT016 OVC025
     FM091100 33024G30KT 5SM BLSN SCT015 BKN025
     FM091700 33023G32KT 6SM BLSN SCT025 BKN035=



000
FTUS43 KDMX 090047 AAB
TAFMCW
TAF AMD
KMCW 090047Z 0901/0924 32023KT 1 1/2SM -SN BLSN BKN016 OVC025
     FM090300 33023G30KT 3SM -SN BLSN SCT016 OVC025
     FM091100 33024G30KT 5SM BLSN SCT015 BKN025
     FM091700 33023G32KT 6SM BLSN SCT025 BKN035=



000
FTUS43 KDMX 090045 AAB
TAFALO
TAF AMD
KALO 090045Z 0901/0924 33022G26KT 2SM -SN OVC029
     FM090200 32019G27KT 3SM -SN BLSN OVC018
     FM091500 32021G28KT 6SM -SN BLSN OVC022
     FM091800 33023G32KT 6SM BLSN SCT025 BKN035=



000
FTUS43 KDMX 090045 AAA
TAFDSM
TAF AMD
KDSM 090045Z 0901/0924 33016G28KT 6SM -SN BLSN BKN025 OVC035
     FM090300 33019G27KT 6SM BLSN OVC018
     FM091400 33016G22KT P6SM SCT018 BKN025
     FM091800 33018G25KT P6SM SCT025=



000
FTUS43 KDMX 090045 AAA
TAFDSM
TAF AMD
KDSM 090045Z 0901/0924 33016G28KT 6SM -SN BLSN BKN025 OVC035
     FM090300 33019G27KT 6SM BLSN OVC018
     FM091400 33016G22KT P6SM SCT018 BKN025
     FM091800 33018G25KT P6SM SCT025=



000
FTUS43 KDMX 090045 AAA
TAFDSM
TAF AMD
KDSM 090045Z 0901/0924 33016G28KT 6SM -SN BLSN BKN025 OVC035
     FM090300 33019G27KT 6SM BLSN OVC018
     FM091400 33016G22KT P6SM SCT018 BKN025
     FM091800 33018G25KT P6SM SCT025=



000
FTUS43 KDMX 090045 AAB
TAFALO
TAF AMD
KALO 090045Z 0901/0924 33022G26KT 2SM -SN OVC029
     FM090200 32019G27KT 3SM -SN BLSN OVC018
     FM091500 32021G28KT 6SM -SN BLSN OVC022
     FM091800 33023G32KT 6SM BLSN SCT025 BKN035=



000
FTUS43 KDMX 090045 AAB
TAFALO
TAF AMD
KALO 090045Z 0901/0924 33022G26KT 2SM -SN OVC029
     FM090200 32019G27KT 3SM -SN BLSN OVC018
     FM091500 32021G28KT 6SM -SN BLSN OVC022
     FM091800 33023G32KT 6SM BLSN SCT025 BKN035=



000
FTUS43 KDMX 090044 AAB
TAFOTM
TAF AMD
KOTM 090044Z 0901/0924 32018G25KT 2SM -SN BLSN BKN018 OVC025
     FM090400 32018KT 5SM -SN SCT018 OVC025
     FM090700 32018KT 6SM -SHSN BKN018 OVC025
     FM091500 32021G28KT 6SM BLSN OVC030=



000
FTUS43 KDMX 090044 AAB
TAFOTM
TAF AMD
KOTM 090044Z 0901/0924 32018G25KT 2SM -SN BLSN BKN018 OVC025
     FM090400 32018KT 5SM -SN SCT018 OVC025
     FM090700 32018KT 6SM -SHSN BKN018 OVC025
     FM091500 32021G28KT 6SM BLSN OVC030=



000
FTUS43 KDMX 090044 AAB
TAFOTM
TAF AMD
KOTM 090044Z 0901/0924 32018G25KT 2SM -SN BLSN BKN018 OVC025
     FM090400 32018KT 5SM -SN SCT018 OVC025
     FM090700 32018KT 6SM -SHSN BKN018 OVC025
     FM091500 32021G28KT 6SM BLSN OVC030=



000
FTUS43 KDMX 090010 AAA
TAFMCW
TAF AMD
KMCW 090010Z 0900/0924 33023KT 2SM -SN BLSN SCT018 OVC025
     FM090100 33023G32KT 3SM -SN BLSN OVC022
     FM090300 33023KT 3SM -SN BLSN OVC018
     FM091100 33024G30KT 5SM BLSN SCT015 BKN025
     FM091700 33023G32KT 6SM BLSN SCT025 BKN035=



000
FTUS43 KDMX 090009 AAA
TAFALO
TAF AMD
KALO 090009Z 0900/0924 33022G28KT 2SM -SN SCT022 OVC035
     FM090200 32019G27KT 3SM -SN BLSN OVC018
     FM091500 32021G28KT 6SM -SN BLSN OVC022
     FM091800 33023G32KT 6SM BLSN SCT025 BKN035=



000
FTUS43 KDMX 090009 AAA
TAFOTM
TAF AMD
KOTM 090009Z 0900/0924 32018G25KT 6SM -SN BLSN BKN018 OVC025
     FM090400 32018KT 5SM -SN SCT018 OVC025
     FM090700 32018KT 6SM -SHSN BKN018 OVC025
     FM091500 32021G28KT 6SM BLSN OVC030=



000
FTUS43 KDMX 082338
TAFFOD
TAF
KFOD 082338Z 0900/0924 33012G26KT 6SM BLSN BR SCT022 OVC035
     FM090200 33012G18KT P6SM SCT018 BKN025
     FM090300 33012G18KT P6SM BKN025
     FM091200 33010G18KT P6SM SCT025 SCT130
     FM091500 33014G22KT P6SM SCT025=



000
FTUS43 KDMX 082338
TAFALO
TAF
KALO 082338Z 0900/0924 33022G30KT P6SM SCT022 OVC050
     FM090200 32019G27KT 3SM -SN BLSN OVC018
     FM091500 32021G28KT 6SM -SN BLSN OVC022
     FM091800 33023G32KT 6SM BLSN SCT025 BKN035=



000
FTUS43 KDMX 082338
TAFMCW
TAF
KMCW 082338Z 0900/0924 32023KT 1/2SM -SN BLSN VV018
     FM090100 33023G32KT 1SM -SN BLSN OVC022
     FM090300 33023KT 3SM -SN BLSN OVC018
     FM091100 33024G30KT 5SM BLSN SCT015 BKN025
     FM091700 33023G32KT 6SM BLSN SCT025 BKN035=



000
FTUS43 KDMX 082338
TAFOTM
TAF
KOTM 082338Z 0900/0924 32018G25KT 1SM -SN BLSN BKN018 OVC025
     FM090400 32018KT 5SM -SN SCT018 OVC025
     FM090700 32018KT 6SM -SHSN BKN018 OVC025
     FM091500 32021G28KT 6SM BLSN OVC030=



000
FTUS43 KDMX 082338
TAFDSM
TAF
KDSM 082338Z 0900/0924 33016G28KT 6SM -SN BLSN SCT022 OVC035
     FM090300 33019G27KT 6SM BLSN OVC018
     FM091400 33016G22KT P6SM SCT018 BKN025
     FM091800 33018G25KT P6SM SCT025=



000
FTUS43 KDMX 082338
TAFALO
TAF
KALO 082338Z 0900/0924 33022G30KT P6SM SCT022 OVC050
     FM090200 32019G27KT 3SM -SN BLSN OVC018
     FM091500 32021G28KT 6SM -SN BLSN OVC022
     FM091800 33023G32KT 6SM BLSN SCT025 BKN035=



000
FTUS43 KDMX 082338
TAFDSM
TAF
KDSM 082338Z 0900/0924 33016G28KT 6SM -SN BLSN SCT022 OVC035
     FM090300 33019G27KT 6SM BLSN OVC018
     FM091400 33016G22KT P6SM SCT018 BKN025
     FM091800 33018G25KT P6SM SCT025=



000
FTUS43 KDMX 082338
TAFOTM
TAF
KOTM 082338Z 0900/0924 32018G25KT 1SM -SN BLSN BKN018 OVC025
     FM090400 32018KT 5SM -SN SCT018 OVC025
     FM090700 32018KT 6SM -SHSN BKN018 OVC025
     FM091500 32021G28KT 6SM BLSN OVC030=



000
FTUS43 KDMX 082338
TAFMCW
TAF
KMCW 082338Z 0900/0924 32023KT 1/2SM -SN BLSN VV018
     FM090100 33023G32KT 1SM -SN BLSN OVC022
     FM090300 33023KT 3SM -SN BLSN OVC018
     FM091100 33024G30KT 5SM BLSN SCT015 BKN025
     FM091700 33023G32KT 6SM BLSN SCT025 BKN035=



000
FTUS43 KDMX 082338
TAFFOD
TAF
KFOD 082338Z 0900/0924 33012G26KT 6SM BLSN BR SCT022 OVC035
     FM090200 33012G18KT P6SM SCT018 BKN025
     FM090300 33012G18KT P6SM BKN025
     FM091200 33010G18KT P6SM SCT025 SCT130
     FM091500 33014G22KT P6SM SCT025=



000
FTUS43 KDMX 082338
TAFFOD
TAF
KFOD 082338Z 0900/0924 33012G26KT 6SM BLSN BR SCT022 OVC035
     FM090200 33012G18KT P6SM SCT018 BKN025
     FM090300 33012G18KT P6SM BKN025
     FM091200 33010G18KT P6SM SCT025 SCT130
     FM091500 33014G22KT P6SM SCT025=



000
FTUS43 KDMX 082338
TAFALO
TAF
KALO 082338Z 0900/0924 33022G30KT P6SM SCT022 OVC050
     FM090200 32019G27KT 3SM -SN BLSN OVC018
     FM091500 32021G28KT 6SM -SN BLSN OVC022
     FM091800 33023G32KT 6SM BLSN SCT025 BKN035=



000
FTUS43 KDMX 082338
TAFMCW
TAF
KMCW 082338Z 0900/0924 32023KT 1/2SM -SN BLSN VV018
     FM090100 33023G32KT 1SM -SN BLSN OVC022
     FM090300 33023KT 3SM -SN BLSN OVC018
     FM091100 33024G30KT 5SM BLSN SCT015 BKN025
     FM091700 33023G32KT 6SM BLSN SCT025 BKN035=



000
FTUS43 KDMX 082338
TAFDSM
TAF
KDSM 082338Z 0900/0924 33016G28KT 6SM -SN BLSN SCT022 OVC035
     FM090300 33019G27KT 6SM BLSN OVC018
     FM091400 33016G22KT P6SM SCT018 BKN025
     FM091800 33018G25KT P6SM SCT025=



000
FTUS43 KDMX 082338
TAFOTM
TAF
KOTM 082338Z 0900/0924 32018G25KT 1SM -SN BLSN BKN018 OVC025
     FM090400 32018KT 5SM -SN SCT018 OVC025
     FM090700 32018KT 6SM -SHSN BKN018 OVC025
     FM091500 32021G28KT 6SM BLSN OVC030=



000
FTUS43 KDMX 082318 AAA
TAFMCW
TAF AMD
KMCW 082318Z 0823/0918 32023KT 1/2SM -SN BLSN VV018
      TEMPO 0823/0824 1SM -SN BLSN OVC022
     FM090000 33023G28KT 1SM -SN BLSN OVC022
     FM090300 33023G30KT 2SM -SN BLSN OVC016
     FM091500 33022G28KT 6SM BLSN SCT015=



000
FTUS43 KDMX 082159 AAA
TAFFOD
TAF AMD
KFOD 082159Z 0822/0918 33014G24KT 5SM -SHSN BLSN BKN035
      TEMPO 0822/0824 2SM -SN BLSN BKN025
     FM090000 33013G23KT 6SM BLSN OVC015
     FM090300 33013G18KT P6SM OVC018
     FM091200 33010G18KT P6SM SCT015=



000
FTUS43 KDMX 082158 AAB
TAFALO
TAF AMD
KALO 082158Z 0822/0918 33023G30KT 6SM -SHSN BLSN SCT015 OVC025
      TEMPO 0822/0824 3SM -SN BLSN
     FM090000 32019G27KT 3SM -SN BLSN OVC015
     FM091500 32021G28KT 6SM BLSN OVC020=



000
FTUS43 KDMX 081911 AAA
TAFALO
TAF AMD
KALO 081911Z 0819/0918 33023G30KT 3SM -SHSN BLSN SCT015 OVC025
      TEMPO 0819/0822 2SM -SN BLSN BKN015
     FM082300 32019G27KT 3SM -SN BLSN OVC015
     FM091500 32021G28KT 6SM BLSN OVC020=



000
FTUS43 KDMX 081911 AAA
TAFALO
TAF AMD
KALO 081911Z 0819/0918 33023G30KT 3SM -SHSN BLSN SCT015 OVC025
      TEMPO 0819/0822 2SM -SN BLSN BKN015
     FM082300 32019G27KT 3SM -SN BLSN OVC015
     FM091500 32021G28KT 6SM BLSN OVC020=



000
FTUS43 KDMX 081911 AAA
TAFALO
TAF AMD
KALO 081911Z 0819/0918 33023G30KT 3SM -SHSN BLSN SCT015 OVC025
      TEMPO 0819/0822 2SM -SN BLSN BKN015
     FM082300 32019G27KT 3SM -SN BLSN OVC015
     FM091500 32021G28KT 6SM BLSN OVC020=



000
FTUS43 KDMX 081910 AAA
TAFDSM
TAF AMD
KDSM 081910Z 0819/0918 33024G34KT 3SM -SHSN BLSN BKN025 OVC040
      TEMPO 0819/0822 1SM -SN BLSN
     FM082300 33022G28KT 5SM BLSN OVC015
     FM090300 33019G27KT 6SM BLSN OVC018
     FM091500 33018G25KT P6SM SCT018=



000
FTUS43 KDMX 081910 AAA
TAFDSM
TAF AMD
KDSM 081910Z 0819/0918 33024G34KT 3SM -SHSN BLSN BKN025 OVC040
      TEMPO 0819/0822 1SM -SN BLSN
     FM082300 33022G28KT 5SM BLSN OVC015
     FM090300 33019G27KT 6SM BLSN OVC018
     FM091500 33018G25KT P6SM SCT018=



000
FTUS43 KDMX 081737
TAFDSM
TAF
KDSM 081737Z 0818/0918 33024G34KT 2SM -SHSN BLSN OVC015
      TEMPO 0818/0822 3/4SM -SN BLSN
     FM082300 33022G28KT 5SM BLSN OVC015
     FM090300 33019G27KT 6SM BLSN OVC018
     FM091500 33018G25KT P6SM SCT018=



000
FTUS43 KDMX 081737
TAFFOD
TAF
KFOD 081737Z 0818/0918 33017G28KT 5SM -SHSN BLSN OVC015
      TEMPO 0818/0822 2SM -SN BLSN
     FM082200 33016G27KT 6SM BLSN OVC015
     FM090300 33013G18KT P6SM OVC018
     FM091200 33010G18KT P6SM SCT015=



000
FTUS43 KDMX 081737
TAFALO
TAF
KALO 081737Z 0818/0918 33023G30KT 2SM -SHSN BLSN SCT015 OVC025
      TEMPO 0818/0822 1SM -SN BLSN BKN015
     FM082300 32019G27KT 3SM -SN BLSN OVC015
     FM091500 32021G28KT 6SM BLSN OVC020=



000
FTUS43 KDMX 081737
TAFOTM
TAF
KOTM 081737Z 0818/0918 33023G32KT 5SM -SHSN BLSN SCT015 OVC025
      TEMPO 0818/0822 1 1/2SM -SN BLSN BKN015
     FM090000 32022G30KT 3SM -SN BLSN OVC020
     FM091500 32021G28KT 6SM BLSN OVC030=



000
FTUS43 KDMX 081737
TAFMCW
TAF
KMCW 081737Z 0818/0918 33025G32KT 1SM -SHSN BLSN BKN015 OVC035
      TEMPO 0818/0822 1/2SM -SN BLSN
     FM082300 33023G30KT 2SM -SN BLSN OVC015
     FM091500 33022G28KT 6SM BLSN SCT015=



000
FTUS43 KDMX 081737
TAFALO
TAF
KALO 081737Z 0818/0918 33023G30KT 2SM -SHSN BLSN SCT015 OVC025
      TEMPO 0818/0822 1SM -SN BLSN BKN015
     FM082300 32019G27KT 3SM -SN BLSN OVC015
     FM091500 32021G28KT 6SM BLSN OVC020=



000
FTUS43 KDMX 081737
TAFDSM
TAF
KDSM 081737Z 0818/0918 33024G34KT 2SM -SHSN BLSN OVC015
      TEMPO 0818/0822 3/4SM -SN BLSN
     FM082300 33022G28KT 5SM BLSN OVC015
     FM090300 33019G27KT 6SM BLSN OVC018
     FM091500 33018G25KT P6SM SCT018=



000
FTUS43 KDMX 081737
TAFOTM
TAF
KOTM 081737Z 0818/0918 33023G32KT 5SM -SHSN BLSN SCT015 OVC025
      TEMPO 0818/0822 1 1/2SM -SN BLSN BKN015
     FM090000 32022G30KT 3SM -SN BLSN OVC020
     FM091500 32021G28KT 6SM BLSN OVC030=



000
FTUS43 KDMX 081737
TAFMCW
TAF
KMCW 081737Z 0818/0918 33025G32KT 1SM -SHSN BLSN BKN015 OVC035
      TEMPO 0818/0822 1/2SM -SN BLSN
     FM082300 33023G30KT 2SM -SN BLSN OVC015
     FM091500 33022G28KT 6SM BLSN SCT015=



000
FTUS43 KDMX 081737
TAFOTM
TAF
KOTM 081737Z 0818/0918 33023G32KT 5SM -SHSN BLSN SCT015 OVC025
      TEMPO 0818/0822 1 1/2SM -SN BLSN BKN015
     FM090000 32022G30KT 3SM -SN BLSN OVC020
     FM091500 32021G28KT 6SM BLSN OVC030=



000
FTUS43 KDMX 081737
TAFFOD
TAF
KFOD 081737Z 0818/0918 33017G28KT 5SM -SHSN BLSN OVC015
      TEMPO 0818/0822 2SM -SN BLSN
     FM082200 33016G27KT 6SM BLSN OVC015
     FM090300 33013G18KT P6SM OVC018
     FM091200 33010G18KT P6SM SCT015=



000
FTUS43 KDMX 081737
TAFALO
TAF
KALO 081737Z 0818/0918 33023G30KT 2SM -SHSN BLSN SCT015 OVC025
      TEMPO 0818/0822 1SM -SN BLSN BKN015
     FM082300 32019G27KT 3SM -SN BLSN OVC015
     FM091500 32021G28KT 6SM BLSN OVC020=



000
FTUS43 KDMX 081737
TAFMCW
TAF
KMCW 081737Z 0818/0918 33025G32KT 1SM -SHSN BLSN BKN015 OVC035
      TEMPO 0818/0822 1/2SM -SN BLSN
     FM082300 33023G30KT 2SM -SN BLSN OVC015
     FM091500 33022G28KT 6SM BLSN SCT015=



000
FTUS43 KDMX 081737
TAFDSM
TAF
KDSM 081737Z 0818/0918 33024G34KT 2SM -SHSN BLSN OVC015
      TEMPO 0818/0822 3/4SM -SN BLSN
     FM082300 33022G28KT 5SM BLSN OVC015
     FM090300 33019G27KT 6SM BLSN OVC018
     FM091500 33018G25KT P6SM SCT018=



000
FTUS43 KDMX 081737
TAFFOD
TAF
KFOD 081737Z 0818/0918 33017G28KT 5SM -SHSN BLSN OVC015
      TEMPO 0818/0822 2SM -SN BLSN
     FM082200 33016G27KT 6SM BLSN OVC015
     FM090300 33013G18KT P6SM OVC018
     FM091200 33010G18KT P6SM SCT015=



000
FTUS43 KDMX 081639 AAB
TAFDSM
TAF AMD
KDSM 081639Z 0817/0912 32023G32KT 2SM -SN SCT015 OVC030
      TEMPO 0817/0820 1SM -SN BKN018
     FM082200 33021G30KT 5SM BLSN OVC020
     FM090100 33016G23KT P6SM OVC020=



000
FTUS43 KDMX 081639 AAB
TAFDSM
TAF AMD
KDSM 081639Z 0817/0912 32023G32KT 2SM -SN SCT015 OVC030
      TEMPO 0817/0820 1SM -SN BKN018
     FM082200 33021G30KT 5SM BLSN OVC020
     FM090100 33016G23KT P6SM OVC020=



000
FTUS43 KDMX 081638 AAA
TAFALO
TAF AMD
KALO 081638Z 0817/0912 33025G33KT 2SM -SN SCT015 OVC020
      TEMPO 0817/0820 1SM -SN BLSN OVC015
     FM082300 33020G28KT 5SM BLSN OVC015
     FM090400 32017G25KT P6SM OVC020=



000
FTUS43 KDMX 081638 AAA
TAFALO
TAF AMD
KALO 081638Z 0817/0912 33025G33KT 2SM -SN SCT015 OVC020
      TEMPO 0817/0820 1SM -SN BLSN OVC015
     FM082300 33020G28KT 5SM BLSN OVC015
     FM090400 32017G25KT P6SM OVC020=



000
FTUS43 KDMX 081638 AAA
TAFMCW
TAF AMD
KMCW 081638Z 0817/0912 32025G36KT 2SM -SN BLSN SCT015 OVC030
      TEMPO 0817/0821 3/4SM -SN BLSN OVC015
     FM082200 33018G25KT 4SM BLSN OVC020=



000
FTUS43 KDMX 081638 AAA
TAFMCW
TAF AMD
KMCW 081638Z 0817/0912 32025G36KT 2SM -SN BLSN SCT015 OVC030
      TEMPO 0817/0821 3/4SM -SN BLSN OVC015
     FM082200 33018G25KT 4SM BLSN OVC020=



000
FTUS43 KDMX 081426 AAA
TAFDSM
TAF AMD
KDSM 081426Z 0814/0912 32023G32KT 3SM -SN BKN015 OVC035
      TEMPO 0814/0817 1SM -SN
     FM082200 33021G30KT 5SM BLSN OVC020
     FM090100 33016G23KT P6SM OVC020=



000
FTUS43 KDMX 081335 AAA
TAFFOD
TAF AMD
KFOD 081335Z 0814/0912 33020G28KT 4SM -SHSN BLSN OVC015
      TEMPO 0814/0818 1SM -SN BLSN OVC009
     FM082100 34017G24KT 5SM BLSN OVC013
     FM090000 33012KT P6SM OVC020=



000
FTUS43 KDMX 081120
TAFFOD
TAF
KFOD 081120Z 0812/0912 33020G28KT 4SM -SHSN BLSN OVC020
      TEMPO 0812/0816 1SM -SN BLSN OVC010
     FM082100 34017G24KT 5SM BLSN OVC013
     FM090000 33012KT P6SM OVC020=



000
FTUS43 KDMX 081120
TAFOTM
TAF
KOTM 081120Z 0812/0912 32023G30KT 4SM -SN OVC020
      TEMPO 0812/0816 1SM -SN SCT010 OVC014
     FM082200 33019G28KT 6SM BLSN OVC017
     FM090100 33016G22KT P6SM OVC020=



000
FTUS43 KDMX 081120
TAFFOD
TAF
KFOD 081120Z 0812/0912 33020G28KT 4SM -SHSN BLSN OVC020
      TEMPO 0812/0816 1SM -SN BLSN OVC010
     FM082100 34017G24KT 5SM BLSN OVC013
     FM090000 33012KT P6SM OVC020=



000
FTUS43 KDMX 081120
TAFALO
TAF
KALO 081120Z 0812/0912 33025G33KT 4SM -SN SCT015 OVC020
      TEMPO 0812/0816 1SM -SN BLSN OVC015
     FM082300 33020G28KT 5SM BLSN OVC015
     FM090400 32017G25KT P6SM OVC020=



000
FTUS43 KDMX 081120
TAFOTM
TAF
KOTM 081120Z 0812/0912 32023G30KT 4SM -SN OVC020
      TEMPO 0812/0816 1SM -SN SCT010 OVC014
     FM082200 33019G28KT 6SM BLSN OVC017
     FM090100 33016G22KT P6SM OVC020=



000
FTUS43 KDMX 081120
TAFALO
TAF
KALO 081120Z 0812/0912 33025G33KT 4SM -SN SCT015 OVC020
      TEMPO 0812/0816 1SM -SN BLSN OVC015
     FM082300 33020G28KT 5SM BLSN OVC015
     FM090400 32017G25KT P6SM OVC020=



000
FTUS43 KDMX 081120
TAFMCW
TAF
KMCW 081120Z 0812/0912 32025G36KT 3SM -SN BLSN SCT015 OVC025
      TEMPO 0812/0816 1/2SM SN BLSN OVC015
     FM082200 33018G25KT 4SM BLSN OVC020=



000
FTUS43 KDMX 081120
TAFDSM
TAF
KDSM 081120Z 0812/0912 32025G34KT 6SM -SN SCT014 OVC022
      TEMPO 0812/0816 2SM -SN SCT003 OVC014
     FM082200 33021G30KT 5SM BLSN OVC020
     FM090100 33016G23KT P6SM OVC020=



000
FTUS43 KDMX 081120
TAFOTM
TAF
KOTM 081120Z 0812/0912 32023G30KT 4SM -SN OVC020
      TEMPO 0812/0816 1SM -SN SCT010 OVC014
     FM082200 33019G28KT 6SM BLSN OVC017
     FM090100 33016G22KT P6SM OVC020=



000
FTUS43 KDMX 081120
TAFMCW
TAF
KMCW 081120Z 0812/0912 32025G36KT 3SM -SN BLSN SCT015 OVC025
      TEMPO 0812/0816 1/2SM SN BLSN OVC015
     FM082200 33018G25KT 4SM BLSN OVC020=



000
FTUS43 KDMX 081120
TAFDSM
TAF
KDSM 081120Z 0812/0912 32025G34KT 6SM -SN SCT014 OVC022
      TEMPO 0812/0816 2SM -SN SCT003 OVC014
     FM082200 33021G30KT 5SM BLSN OVC020
     FM090100 33016G23KT P6SM OVC020=



000
FTUS43 KDMX 081056 AAB
TAFDSM
TAF AMD
KDSM 081056Z 0811/0906 32025G33KT 6SM -SN SCT014 OVC022
      TEMPO 0811/0815 2SM -SN SCT003 OVC014
     FM082200 33021G30KT 5SM BLSN OVC012
     FM090400 33018G26KT P6SM OVC020=



000
FTUS43 KDMX 081056 AAB
TAFDSM
TAF AMD
KDSM 081056Z 0811/0906 32025G33KT 6SM -SN SCT014 OVC022
      TEMPO 0811/0815 2SM -SN SCT003 OVC014
     FM082200 33021G30KT 5SM BLSN OVC012
     FM090400 33018G26KT P6SM OVC020=



000
FTUS43 KDMX 081056 AAB
TAFDSM
TAF AMD
KDSM 081056Z 0811/0906 32025G33KT 6SM -SN SCT014 OVC022
      TEMPO 0811/0815 2SM -SN SCT003 OVC014
     FM082200 33021G30KT 5SM BLSN OVC012
     FM090400 33018G26KT P6SM OVC020=



000
FTUS43 KDMX 081055 AAD
TAFOTM
TAF AMD
KOTM 081055Z 0811/0906 32020G28KT 4SM -SN OVC020
      TEMPO 0811/0815 1SM -SN SCT010 OVC014
     FM082300 33019G28KT 6SM BLSN OVC012
     FM090400 33018G26KT P6SM OVC028=



000
FTUS43 KDMX 081055 AAD
TAFOTM
TAF AMD
KOTM 081055Z 0811/0906 32020G28KT 4SM -SN OVC020
      TEMPO 0811/0815 1SM -SN SCT010 OVC014
     FM082300 33019G28KT 6SM BLSN OVC012
     FM090400 33018G26KT P6SM OVC028=



000
FTUS43 KDMX 081055 AAD
TAFOTM
TAF AMD
KOTM 081055Z 0811/0906 32020G28KT 4SM -SN OVC020
      TEMPO 0811/0815 1SM -SN SCT010 OVC014
     FM082300 33019G28KT 6SM BLSN OVC012
     FM090400 33018G26KT P6SM OVC028=



000
FTUS43 KDMX 081053 AAD
TAFFOD
TAF AMD
KFOD 081053Z 0811/0906 33020G28KT 4SM -SHSN BLSN OVC020
      TEMPO 0811/0815 1/2SM SN OVC010
     FM082100 34017G24KT 5SM BLSN OVC013
     FM090300 33013KT P6SM OVC018=



000
FTUS43 KDMX 081053 AAD
TAFFOD
TAF AMD
KFOD 081053Z 0811/0906 33020G28KT 4SM -SHSN BLSN OVC020
      TEMPO 0811/0815 1/2SM SN OVC010
     FM082100 34017G24KT 5SM BLSN OVC013
     FM090300 33013KT P6SM OVC018=



000
FTUS43 KDMX 081052 AAB
TAFALO
TAF AMD
KALO 081052Z 0811/0906 33024G32KT 4SM -SN SCT015 OVC020
      TEMPO 0811/0815 1SM -SN BLSN OVC015
     FM082300 33020G28KT 5SM BLSN OVC015
     FM090400 32017G25KT P6SM OVC015=



000
FTUS43 KDMX 080900 AAB
TAFMCW
TAF AMD
KMCW 080900Z 0809/0906 32023G36KT 3SM -SHSN BLSN SCT015 OVC035
      TEMPO 0809/0813 1/2SM SN BLSN OVC015
     FM081300 34027G36KT 1SM -SHSN BLSN OVC010
     FM082300 33022G30KT 2SM BLSN OVC013
     FM090200 32020G26KT 5SM BLSN OVC018=



000
FTUS43 KDMX 080859 AAC
TAFFOD
TAF AMD
KFOD 080859Z 0809/0906 33020G34KT 2SM -SHSN BLSN OVC015
      TEMPO 0809/0813 1/2SM SN OVC009
     FM081600 34023G32KT 1SM -SHSN BLSN OVC010
     FM082300 33014G25KT 4SM BLSN OVC013
     FM090300 33013KT P6SM OVC018=



000
FTUS43 KDMX 080723 AAC
TAFOTM
TAF AMD
KOTM 080723Z 0807/0906 32020G26KT 6SM -SN OVC020
      TEMPO 0807/0811 3SM -SN SCT010 OVC014
     FM081100 32022G32KT 2SM -SHSN BLSN SCT006 OVC015
     FM082300 33021G30KT 3SM BLSN OVC012
     FM090400 33018G26KT P6SM OVC028=



000
FTUS43 KDMX 080721 AAA
TAFDSM
TAF AMD
KDSM 080721Z 0807/0906 32019G29KT 6SM -SN SCT014 OVC022
      TEMPO 0807/0811 2SM -SN SCT003 OVC014
     FM081100 33023G33KT 2SM -SHSN BLSN OVC011
     FM082300 33021G30KT 4SM BLSN OVC012
     FM090400 33018G26KT P6SM OVC020=



000
FTUS43 KDMX 080721 AAA
TAFDSM
TAF AMD
KDSM 080721Z 0807/0906 32019G29KT 6SM -SN SCT014 OVC022
      TEMPO 0807/0811 2SM -SN SCT003 OVC014
     FM081100 33023G33KT 2SM -SHSN BLSN OVC011
     FM082300 33021G30KT 4SM BLSN OVC012
     FM090400 33018G26KT P6SM OVC020=



000
FTUS43 KDMX 080721 AAA
TAFDSM
TAF AMD
KDSM 080721Z 0807/0906 32019G29KT 6SM -SN SCT014 OVC022
      TEMPO 0807/0811 2SM -SN SCT003 OVC014
     FM081100 33023G33KT 2SM -SHSN BLSN OVC011
     FM082300 33021G30KT 4SM BLSN OVC012
     FM090400 33018G26KT P6SM OVC020=



000
FTUS43 KDMX 080719 AAA
TAFALO
TAF AMD
KALO 080719Z 0807/0906 30024G32KT 4SM -SN SCT015 OVC035
      TEMPO 0807/0810 1SM -SN BLSN OVC015
     FM081000 32026G38KT 1/2SM SN BLSN SCT006 OVC011
     FM081700 34022G32KT 1SM -SHSN BLSN OVC010
     FM082300 33020G28KT 2SM BLSN OVC015
     FM090400 32017G25KT 5SM BLSN OVC015=



000
FTUS43 KDMX 080719 AAA
TAFALO
TAF AMD
KALO 080719Z 0807/0906 30024G32KT 4SM -SN SCT015 OVC035
      TEMPO 0807/0810 1SM -SN BLSN OVC015
     FM081000 32026G38KT 1/2SM SN BLSN SCT006 OVC011
     FM081700 34022G32KT 1SM -SHSN BLSN OVC010
     FM082300 33020G28KT 2SM BLSN OVC015
     FM090400 32017G25KT 5SM BLSN OVC015=



000
FTUS43 KDMX 080719 AAA
TAFALO
TAF AMD
KALO 080719Z 0807/0906 30024G32KT 4SM -SN SCT015 OVC035
      TEMPO 0807/0810 1SM -SN BLSN OVC015
     FM081000 32026G38KT 1/2SM SN BLSN SCT006 OVC011
     FM081700 34022G32KT 1SM -SHSN BLSN OVC010
     FM082300 33020G28KT 2SM BLSN OVC015
     FM090400 32017G25KT 5SM BLSN OVC015=



000
FTUS43 KDMX 080717 AAA
TAFMCW
TAF AMD
KMCW 080717Z 0807/0906 32026G36KT 1SM -SHSN BLSN SCT015 OVC035
      TEMPO 0807/0811 1/2SM SN BLSN OVC015
     FM081100 34027G36KT 1/2SM SHSN BLSN OVC010
     FM082300 33022G30KT 2SM BLSN OVC013
     FM090200 32020G26KT 5SM BLSN OVC018=



000
FTUS43 KDMX 080715 AAB
TAFFOD
TAF AMD
KFOD 080715Z 0807/0906 32015G26KT 6SM -SN SCT015 OVC035
      TEMPO 0807/0809 2SM -SN SCT006 OVC015
     FM080900 34019G30KT 2SM -SHSN BLSN OVC015
      TEMPO 0810/0814 1/2SM SN OVC006
     FM081600 34023G32KT 1SM -SHSN BLSN OVC010
     FM082300 33014G25KT 4SM BLSN OVC013
     FM090300 33013KT P6SM OVC018=



000
FTUS43 KDMX 080548 AAB
TAFOTM
TAF AMD
KOTM 080548Z 0806/0906 30012KT 6SM BR BKN010
     FM080700 29016G23KT 5SM -SHSN OVC012
     FM081100 32022G32KT 2SM -SHSN BLSN SCT006 OVC015
     FM081900 33026G34KT 1SM -SHSN BLSN OVC008
     FM082300 33021G30KT 3SM BLSN OVC012
     FM090400 33018G26KT P6SM OVC028=



000
FTUS43 KDMX 080548 AAB
TAFOTM
TAF AMD
KOTM 080548Z 0806/0906 30012KT 6SM BR BKN010
     FM080700 29016G23KT 5SM -SHSN OVC012
     FM081100 32022G32KT 2SM -SHSN BLSN SCT006 OVC015
     FM081900 33026G34KT 1SM -SHSN BLSN OVC008
     FM082300 33021G30KT 3SM BLSN OVC012
     FM090400 33018G26KT P6SM OVC028=



000
FTUS43 KDMX 080548 AAB
TAFOTM
TAF AMD
KOTM 080548Z 0806/0906 30012KT 6SM BR BKN010
     FM080700 29016G23KT 5SM -SHSN OVC012
     FM081100 32022G32KT 2SM -SHSN BLSN SCT006 OVC015
     FM081900 33026G34KT 1SM -SHSN BLSN OVC008
     FM082300 33021G30KT 3SM BLSN OVC012
     FM090400 33018G26KT P6SM OVC028=



000
FTUS43 KDMX 080547 AAA
TAFOTM
TAF AMD
KOTM 080547Z 0806/0906 30012KT 6SM -FZRA BR BKN010
     FM080700 29016G23KT 5SM -SHSN OVC012
     FM081100 32022G32KT 2SM -SHSN BLSN SCT006 OVC015
     FM081900 33026G34KT 1SM -SHSN BLSN OVC008
     FM082300 33021G30KT 3SM BLSN OVC012
     FM090400 33018G26KT P6SM OVC028=



000
FTUS43 KDMX 080547 AAA
TAFFOD
TAF AMD
KFOD 080547Z 0806/0906 32015G28KT P6SM VCSH SCT006 OVC020
      TEMPO 0806/0809 2SM -SHSN OVC015
     FM080900 34018G30KT 1/2SM SHSN BLSN OVC015
     FM081600 34019G32KT 3/4SM -SHSN BLSN OVC010
     FM082300 33014G25KT 4SM BLSN OVC013
     FM090300 33013KT P6SM OVC018=



000
FTUS43 KDMX 080547 AAA
TAFFOD
TAF AMD
KFOD 080547Z 0806/0906 32015G28KT P6SM VCSH SCT006 OVC020
      TEMPO 0806/0809 2SM -SHSN OVC015
     FM080900 34018G30KT 1/2SM SHSN BLSN OVC015
     FM081600 34019G32KT 3/4SM -SHSN BLSN OVC010
     FM082300 33014G25KT 4SM BLSN OVC013
     FM090300 33013KT P6SM OVC018=



000
FTUS43 KDMX 080547 AAA
TAFFOD
TAF AMD
KFOD 080547Z 0806/0906 32015G28KT P6SM VCSH SCT006 OVC020
      TEMPO 0806/0809 2SM -SHSN OVC015
     FM080900 34018G30KT 1/2SM SHSN BLSN OVC015
     FM081600 34019G32KT 3/4SM -SHSN BLSN OVC010
     FM082300 33014G25KT 4SM BLSN OVC013
     FM090300 33013KT P6SM OVC018=



000
FTUS43 KDMX 080547 AAA
TAFOTM
TAF AMD
KOTM 080547Z 0806/0906 30012KT 6SM -FZRA BR BKN010
     FM080700 29016G23KT 5SM -SHSN OVC012
     FM081100 32022G32KT 2SM -SHSN BLSN SCT006 OVC015
     FM081900 33026G34KT 1SM -SHSN BLSN OVC008
     FM082300 33021G30KT 3SM BLSN OVC012
     FM090400 33018G26KT P6SM OVC028=



000
FTUS43 KDMX 080547 AAA
TAFOTM
TAF AMD
KOTM 080547Z 0806/0906 30012KT 6SM -FZRA BR BKN010
     FM080700 29016G23KT 5SM -SHSN OVC012
     FM081100 32022G32KT 2SM -SHSN BLSN SCT006 OVC015
     FM081900 33026G34KT 1SM -SHSN BLSN OVC008
     FM082300 33021G30KT 3SM BLSN OVC012
     FM090400 33018G26KT P6SM OVC028=



000
FTUS43 KDMX 080545
TAFMCW
TAF
KMCW 080545Z 0806/0906 32026G35KT 1SM -SHSN BLSN SCT006 OVC015
      TEMPO 0806/0810 1/2SM SHSN BLSN OVC010
     FM081600 34027G36KT 1/2SM SHSN BLSN OVC010
     FM082300 33022G30KT 2SM BLSN OVC013
     FM090200 32020G26KT 5SM BLSN OVC018=



000
FTUS43 KDMX 080545
TAFALO
TAF
KALO 080545Z 0806/0906 30019G29KT P6SM VCSH OVC020
      TEMPO 0806/0809 4SM -SHSN BLSN OVC012
     FM080900 32026G38KT 3/4SM -SHSN BLSN SCT006 OVC015
     FM081700 34022G32KT 1/2SM SHSN BLSN OVC010
     FM082300 33020G28KT 2SM BLSN OVC015
     FM090400 32017G25KT 5SM BLSN OVC015=



000
FTUS43 KDMX 080545
TAFFOD
TAF
KFOD 080545Z 0806/0906 32015G28KT 2SM -SHSN BLSN SCT006 OVC020
     FM080900 34018G30KT 1/2SM SHSN BLSN OVC015
     FM081600 34019G32KT 3/4SM -SHSN BLSN OVC010
     FM082300 33014G25KT 4SM BLSN OVC013
     FM090300 33013KT P6SM OVC018=



000
FTUS43 KDMX 080545
TAFOTM
TAF
KOTM 080545Z 0806/0906 30012KT 5SM -FZRA BR BKN010
     FM080700 29016G23KT 5SM -SHSN OVC012
     FM081100 32022G32KT 2SM -SHSN BLSN SCT006 OVC015
     FM081900 33026G34KT 1SM -SHSN BLSN OVC008
     FM082300 33021G30KT 3SM BLSN OVC012
     FM090400 33018G26KT P6SM OVC028=



000
FTUS43 KDMX 080545
TAFDSM
TAF
KDSM 080545Z 0806/0906 32022G31KT 6SM -SHSN SCT006 OVC022
     FM081100 33023G33KT 3/4SM -SHSN BLSN OVC017
     FM081700 33026G34KT 1/2SM SHSN BLSN OVC008
     FM082300 33021G30KT 2SM BLSN OVC012
     FM090400 33018G26KT 5SM BLSN OVC020=



000
FTUS43 KDMX 080545
TAFALO
TAF
KALO 080545Z 0806/0906 30019G29KT P6SM VCSH OVC020
      TEMPO 0806/0809 4SM -SHSN BLSN OVC012
     FM080900 32026G38KT 3/4SM -SHSN BLSN SCT006 OVC015
     FM081700 34022G32KT 1/2SM SHSN BLSN OVC010
     FM082300 33020G28KT 2SM BLSN OVC015
     FM090400 32017G25KT 5SM BLSN OVC015=



000
FTUS43 KDMX 080545
TAFFOD
TAF
KFOD 080545Z 0806/0906 32015G28KT 2SM -SHSN BLSN SCT006 OVC020
     FM080900 34018G30KT 1/2SM SHSN BLSN OVC015
     FM081600 34019G32KT 3/4SM -SHSN BLSN OVC010
     FM082300 33014G25KT 4SM BLSN OVC013
     FM090300 33013KT P6SM OVC018=



000
FTUS43 KDMX 080545
TAFMCW
TAF
KMCW 080545Z 0806/0906 32026G35KT 1SM -SHSN BLSN SCT006 OVC015
      TEMPO 0806/0810 1/2SM SHSN BLSN OVC010
     FM081600 34027G36KT 1/2SM SHSN BLSN OVC010
     FM082300 33022G30KT 2SM BLSN OVC013
     FM090200 32020G26KT 5SM BLSN OVC018=



000
FTUS43 KDMX 080545
TAFOTM
TAF
KOTM 080545Z 0806/0906 30012KT 5SM -FZRA BR BKN010
     FM080700 29016G23KT 5SM -SHSN OVC012
     FM081100 32022G32KT 2SM -SHSN BLSN SCT006 OVC015
     FM081900 33026G34KT 1SM -SHSN BLSN OVC008
     FM082300 33021G30KT 3SM BLSN OVC012
     FM090400 33018G26KT P6SM OVC028=



000
FTUS43 KDMX 080545
TAFDSM
TAF
KDSM 080545Z 0806/0906 32022G31KT 6SM -SHSN SCT006 OVC022
     FM081100 33023G33KT 3/4SM -SHSN BLSN OVC017
     FM081700 33026G34KT 1/2SM SHSN BLSN OVC008
     FM082300 33021G30KT 2SM BLSN OVC012
     FM090400 33018G26KT 5SM BLSN OVC020=



000
FTUS43 KDMX 080545
TAFMCW
TAF
KMCW 080545Z 0806/0906 32026G35KT 1SM -SHSN BLSN SCT006 OVC015
      TEMPO 0806/0810 1/2SM SHSN BLSN OVC010
     FM081600 34027G36KT 1/2SM SHSN BLSN OVC010
     FM082300 33022G30KT 2SM BLSN OVC013
     FM090200 32020G26KT 5SM BLSN OVC018=



000
FTUS43 KDMX 080545
TAFDSM
TAF
KDSM 080545Z 0806/0906 32022G31KT 6SM -SHSN SCT006 OVC022
     FM081100 33023G33KT 3/4SM -SHSN BLSN OVC017
     FM081700 33026G34KT 1/2SM SHSN BLSN OVC008
     FM082300 33021G30KT 2SM BLSN OVC012
     FM090400 33018G26KT 5SM BLSN OVC020=



000
FTUS43 KDMX 080545
TAFALO
TAF
KALO 080545Z 0806/0906 30019G29KT P6SM VCSH OVC020
      TEMPO 0806/0809 4SM -SHSN BLSN OVC012
     FM080900 32026G38KT 3/4SM -SHSN BLSN SCT006 OVC015
     FM081700 34022G32KT 1/2SM SHSN BLSN OVC010
     FM082300 33020G28KT 2SM BLSN OVC015
     FM090400 32017G25KT 5SM BLSN OVC015=



000
FTUS43 KDMX 080545
TAFOTM
TAF
KOTM 080545Z 0806/0906 30012KT 5SM -FZRA BR BKN010
     FM080700 29016G23KT 5SM -SHSN OVC012
     FM081100 32022G32KT 2SM -SHSN BLSN SCT006 OVC015
     FM081900 33026G34KT 1SM -SHSN BLSN OVC008
     FM082300 33021G30KT 3SM BLSN OVC012
     FM090400 33018G26KT P6SM OVC028=



000
FTUS43 KDMX 080545
TAFFOD
TAF
KFOD 080545Z 0806/0906 32015G28KT 2SM -SHSN BLSN SCT006 OVC020
     FM080900 34018G30KT 1/2SM SHSN BLSN OVC015
     FM081600 34019G32KT 3/4SM -SHSN BLSN OVC010
     FM082300 33014G25KT 4SM BLSN OVC013
     FM090300 33013KT P6SM OVC018=



000
FTUS43 KDMX 080433 AAB
TAFALO
TAF AMD
KALO 080433Z 0805/0824 30019G28KT 4SM -SHSN SCT012 OVC020
     FM080600 30019G29KT 2SM -SHSN OVC020
      TEMPO 0806/0809 1/2SM SHSN BLSN OVC012
     FM080900 32026G38KT 1SM -SHSN BLSN SCT006 OVC015
     FM081700 34022G32KT 1/2SM SHSN BLSN OVC010
     FM082300 33020G28KT 2SM BLSN OVC015=



000
FTUS43 KDMX 080431 AAB
TAFMCW
TAF AMD
KMCW 080431Z 0805/0824 30019G29KT 5SM -SHSN OVC020
      TEMPO 0805/0807 1/2SM SHSN BLSN BKN015
     FM080700 32026G38KT 1SM -SHSN BLSN SCT006 OVC015
     FM081600 34021G32KT 1/2SM SHSN BLSN OVC010
     FM082300 33016G25KT 4SM BLSN OVC013=



000
FTUS43 KDMX 080337 AAC
TAFFOD
TAF AMD
KFOD 080337Z 0804/0824 30014G22KT P6SM VCSH OVC020
     FM080600 32018G30KT 1SM -SHSN BLSN SCT006 OVC015
     FM081600 34019G32KT 1/2SM SHSN BLSN OVC010
     FM082300 33014G25KT 4SM BLSN OVC013=



000
FTUS43 KDMX 080336 AAD
TAFOTM
TAF AMD
KOTM 080336Z 0804/0824 27014KT P6SM BKN025
     FM080800 29016G23KT 5SM -SHSN OVC020
     FM081100 32022G32KT 2SM -SHSN BLSN SCT006 OVC015
     FM081900 33026G34KT 3/4SM -SHSN BLSN OVC008
     FM082300 33021G30KT 1SM BLSN OVC012=



000
FTUS43 KDMX 080335 AAB
TAFDSM
TAF AMD
KDSM 080335Z 0804/0824 31018G28KT 6SM -SHSN OVC019
     FM080700 32024G34KT 2SM -SHSN BLSN SCT006 OVC015
     FM081700 33026G34KT 1/2SM SHSN BLSN OVC008
     FM082300 33021G30KT 1SM BLSN OVC012=



000
FTUS43 KDMX 080247 AAC
TAFOTM
TAF AMD
KOTM 080247Z 0803/0824 27014KT P6SM BKN050
     FM080500 29016G23KT 5SM -SHSN OVC020
     FM080800 32022G32KT 2SM -SHSN BLSN SCT006 OVC015
     FM081900 33026G34KT 3/4SM -SHSN BLSN OVC008
     FM082300 33021G30KT 1SM BLSN OVC012=



000
FTUS43 KDMX 080221 AAB
TAFFOD
TAF AMD
KFOD 080221Z 0802/0824 30014G22KT 2SM -SHSN OVC016
     FM080500 32018G30KT 1SM -SHSN BLSN SCT006 OVC015
     FM081600 34019G32KT 1/2SM SHSN BLSN OVC010
     FM082300 33014G25KT 4SM BLSN OVC013=



000
FTUS43 KDMX 080221 AAB
TAFFOD
TAF AMD
KFOD 080221Z 0802/0824 30014G22KT 2SM -SHSN OVC016
     FM080500 32018G30KT 1SM -SHSN BLSN SCT006 OVC015
     FM081600 34019G32KT 1/2SM SHSN BLSN OVC010
     FM082300 33014G25KT 4SM BLSN OVC013=



000
FTUS43 KDMX 080221 AAB
TAFFOD
TAF AMD
KFOD 080221Z 0802/0824 30014G22KT 2SM -SHSN OVC016
     FM080500 32018G30KT 1SM -SHSN BLSN SCT006 OVC015
     FM081600 34019G32KT 1/2SM SHSN BLSN OVC010
     FM082300 33014G25KT 4SM BLSN OVC013=



000
FTUS43 KDMX 080143 AAA
TAFMCW
TAF AMD
KMCW 080143Z 0802/0824 30019G29KT 5SM -SHSN OVC020
      TEMPO 0802/0804 2SM -SHSN BKN015
     FM080700 32026G38KT 1SM -SHSN BLSN SCT006 OVC015
     FM081600 34021G32KT 1/2SM SHSN BLSN OVC010
     FM082300 33016G25KT 4SM BLSN OVC013=



000
FTUS43 KDMX 080118 AAB
TAFOTM
TAF AMD
KOTM 080118Z 0801/0824 27012G22KT P6SM BKN060
     FM080300 29016G23KT 5SM -SHSN OVC020
     FM080800 32022G32KT 2SM -SHSN BLSN SCT006 OVC015
     FM081900 33026G34KT 3/4SM -SHSN BLSN OVC008
     FM082300 33021G30KT 1SM BLSN OVC012=



000
FTUS43 KDMX 080118 AAB
TAFOTM
TAF AMD
KOTM 080118Z 0801/0824 27012G22KT P6SM BKN060
     FM080300 29016G23KT 5SM -SHSN OVC020
     FM080800 32022G32KT 2SM -SHSN BLSN SCT006 OVC015
     FM081900 33026G34KT 3/4SM -SHSN BLSN OVC008
     FM082300 33021G30KT 1SM BLSN OVC012=



000
FTUS43 KDMX 080118 AAB
TAFOTM
TAF AMD
KOTM 080118Z 0801/0824 27012G22KT P6SM BKN060
     FM080300 29016G23KT 5SM -SHSN OVC020
     FM080800 32022G32KT 2SM -SHSN BLSN SCT006 OVC015
     FM081900 33026G34KT 3/4SM -SHSN BLSN OVC008
     FM082300 33021G30KT 1SM BLSN OVC012=



000
FTUS43 KDMX 080117 AAA
TAFDSM
TAF AMD
KDSM 080117Z 0801/0824 31016G22KT 6SM -SHSN BKN022
      TEMPO 0801/0802 5SM -SHSN OVC016
     FM080500 32024G34KT 2SM -SHSN BLSN SCT006 OVC015
     FM081700 33026G34KT 1/2SM SHSN BLSN OVC008
     FM082300 33021G30KT 1SM BLSN OVC012=



000
FTUS43 KDMX 080117 AAA
TAFDSM
TAF AMD
KDSM 080117Z 0801/0824 31016G22KT 6SM -SHSN BKN022
      TEMPO 0801/0802 5SM -SHSN OVC016
     FM080500 32024G34KT 2SM -SHSN BLSN SCT006 OVC015
     FM081700 33026G34KT 1/2SM SHSN BLSN OVC008
     FM082300 33021G30KT 1SM BLSN OVC012=



000
FTUS43 KDMX 080117 AAA
TAFDSM
TAF AMD
KDSM 080117Z 0801/0824 31016G22KT 6SM -SHSN BKN022
      TEMPO 0801/0802 5SM -SHSN OVC016
     FM080500 32024G34KT 2SM -SHSN BLSN SCT006 OVC015
     FM081700 33026G34KT 1/2SM SHSN BLSN OVC008
     FM082300 33021G30KT 1SM BLSN OVC012=



000
FTUS43 KDMX 080116 AAA
TAFALO
TAF AMD
KALO 080116Z 0801/0824 27014KT P6SM BKN022
     FM080200 28019G26KT 6SM -SHSN BKN012 OVC020
     FM080500 30019G29KT 5SM -SHSN OVC020
     FM080800 32026G38KT 1SM -SHSN BLSN SCT006 OVC015
     FM081700 34022G32KT 1/2SM SHSN BLSN OVC010
     FM082300 33020G28KT 2SM BLSN OVC015=



000
FTUS43 KDMX 080116 AAA
TAFALO
TAF AMD
KALO 080116Z 0801/0824 27014KT P6SM BKN022
     FM080200 28019G26KT 6SM -SHSN BKN012 OVC020
     FM080500 30019G29KT 5SM -SHSN OVC020
     FM080800 32026G38KT 1SM -SHSN BLSN SCT006 OVC015
     FM081700 34022G32KT 1/2SM SHSN BLSN OVC010
     FM082300 33020G28KT 2SM BLSN OVC015=



000
FTUS43 KDMX 080023 AAA
TAFFOD
TAF AMD
KFOD 080023Z 0800/0824 28012G18KT P6SM BKN025 OVC040
     FM080200 30014G22KT 5SM -SHSN OVC020
     FM080500 32018G30KT 1SM -SHSN BLSN SCT006 OVC015
     FM081600 34019G32KT 1/2SM SHSN BLSN OVC010
     FM082300 33014G25KT 4SM BLSN OVC013=



000
FTUS43 KDMX 080023 AAA
TAFFOD
TAF AMD
KFOD 080023Z 0800/0824 28012G18KT P6SM BKN025 OVC040
     FM080200 30014G22KT 5SM -SHSN OVC020
     FM080500 32018G30KT 1SM -SHSN BLSN SCT006 OVC015
     FM081600 34019G32KT 1/2SM SHSN BLSN OVC010
     FM082300 33014G25KT 4SM BLSN OVC013=



000
FTUS43 KDMX 080000 AAA
TAFOTM
TAF AMD
KOTM 080000Z 0800/0824 27012G22KT P6SM BKN060
     FM080100 29016G23KT 5SM -SHSN OVC020
     FM080800 32022G32KT 2SM -SHSN BLSN SCT006 OVC015
     FM081900 33026G34KT 3/4SM -SHSN BLSN OVC008
     FM082300 33021G30KT 1SM BLSN OVC012=



000
FTUS43 KDMX 080000 AAA
TAFOTM
TAF AMD
KOTM 080000Z 0800/0824 27012G22KT P6SM BKN060
     FM080100 29016G23KT 5SM -SHSN OVC020
     FM080800 32022G32KT 2SM -SHSN BLSN SCT006 OVC015
     FM081900 33026G34KT 3/4SM -SHSN BLSN OVC008
     FM082300 33021G30KT 1SM BLSN OVC012=



000
FTUS43 KDMX 072337
TAFOTM
TAF
KOTM 072337Z 0800/0824 27012KT P6SM BKN060
     FM080100 29016G23KT 5SM -SHSN OVC020
     FM080800 32022G32KT 2SM -SHSN BLSN SCT006 OVC015
     FM081900 33026G34KT 3/4SM -SHSN BLSN OVC008
     FM082300 33021G30KT 1SM BLSN OVC012=



000
FTUS43 KDMX 072337
TAFMCW
TAF
KMCW 072337Z 0800/0824 28019G26KT 6SM -SHSN BKN012 OVC020
     FM080200 30019G29KT 5SM -SHSN OVC020
     FM080700 32026G38KT 1SM -SHSN BLSN SCT006 OVC015
     FM081600 34021G32KT 1/2SM SHSN BLSN OVC010
     FM082300 33016G25KT 4SM BLSN OVC013=



000
FTUS43 KDMX 072337
TAFMCW
TAF
KMCW 072337Z 0800/0824 28019G26KT 6SM -SHSN BKN012 OVC020
     FM080200 30019G29KT 5SM -SHSN OVC020
     FM080700 32026G38KT 1SM -SHSN BLSN SCT006 OVC015
     FM081600 34021G32KT 1/2SM SHSN BLSN OVC010
     FM082300 33016G25KT 4SM BLSN OVC013=



000
FTUS43 KDMX 072337
TAFALO
TAF
KALO 072337Z 0800/0824 27014KT P6SM SCT060 BKN150
     FM080200 28019G26KT 6SM -SHSN BKN012 OVC020
     FM080500 30019G29KT 5SM -SHSN OVC020
     FM080800 32026G38KT 1SM -SHSN BLSN SCT006 OVC015
     FM081700 34022G32KT 1/2SM SHSN BLSN OVC010
     FM082300 33020G28KT 2SM BLSN OVC015=



000
FTUS43 KDMX 072337
TAFMCW
TAF
KMCW 072337Z 0800/0824 28019G26KT 6SM -SHSN BKN012 OVC020
     FM080200 30019G29KT 5SM -SHSN OVC020
     FM080700 32026G38KT 1SM -SHSN BLSN SCT006 OVC015
     FM081600 34021G32KT 1/2SM SHSN BLSN OVC010
     FM082300 33016G25KT 4SM BLSN OVC013=



000
FTUS43 KDMX 072337
TAFFOD
TAF
KFOD 072337Z 0800/0824 28012G18KT P6SM SCT020 OVC040
     FM080200 30014G22KT 5SM -SHSN OVC020
     FM080500 32018G30KT 1SM -SHSN BLSN SCT006 OVC015
     FM081600 34019G32KT 1/2SM SHSN BLSN OVC010
     FM082300 33014G25KT 4SM BLSN OVC013=



000
FTUS43 KDMX 072337
TAFFOD
TAF
KFOD 072337Z 0800/0824 28012G18KT P6SM SCT020 OVC040
     FM080200 30014G22KT 5SM -SHSN OVC020
     FM080500 32018G30KT 1SM -SHSN BLSN SCT006 OVC015
     FM081600 34019G32KT 1/2SM SHSN BLSN OVC010
     FM082300 33014G25KT 4SM BLSN OVC013=



000
FTUS43 KDMX 072337
TAFOTM
TAF
KOTM 072337Z 0800/0824 27012KT P6SM BKN060
     FM080100 29016G23KT 5SM -SHSN OVC020
     FM080800 32022G32KT 2SM -SHSN BLSN SCT006 OVC015
     FM081900 33026G34KT 3/4SM -SHSN BLSN OVC008
     FM082300 33021G30KT 1SM BLSN OVC012=



000
FTUS43 KDMX 072337
TAFALO
TAF
KALO 072337Z 0800/0824 27014KT P6SM SCT060 BKN150
     FM080200 28019G26KT 6SM -SHSN BKN012 OVC020
     FM080500 30019G29KT 5SM -SHSN OVC020
     FM080800 32026G38KT 1SM -SHSN BLSN SCT006 OVC015
     FM081700 34022G32KT 1/2SM SHSN BLSN OVC010
     FM082300 33020G28KT 2SM BLSN OVC015=



000
FTUS43 KDMX 072337
TAFDSM
TAF
KDSM 072337Z 0800/0824 31020G28KT 6SM -SHSN BKN040
      TEMPO 0800/0802 3SM -SHSN OVC020
     FM080500 32024G34KT 2SM -SHSN BLSN SCT006 OVC015
     FM081700 33026G34KT 1/2SM SHSN BLSN OVC008
     FM082300 33021G30KT 1SM BLSN OVC012=



000
FTUS43 KDMX 072337
TAFDSM
TAF
KDSM 072337Z 0800/0824 31020G28KT 6SM -SHSN BKN040
      TEMPO 0800/0802 3SM -SHSN OVC020
     FM080500 32024G34KT 2SM -SHSN BLSN SCT006 OVC015
     FM081700 33026G34KT 1/2SM SHSN BLSN OVC008
     FM082300 33021G30KT 1SM BLSN OVC012=



000
FTUS43 KDMX 072337
TAFOTM
TAF
KOTM 072337Z 0800/0824 27012KT P6SM BKN060
     FM080100 29016G23KT 5SM -SHSN OVC020
     FM080800 32022G32KT 2SM -SHSN BLSN SCT006 OVC015
     FM081900 33026G34KT 3/4SM -SHSN BLSN OVC008
     FM082300 33021G30KT 1SM BLSN OVC012=



000
FTUS43 KDMX 071746 AAA
TAFMCW
TAF AMD
KMCW 071746Z 0718/0818 28018G25KT P6SM SCT120
     FM072300 30019G29KT 5SM -SHSN OVC020
     FM080200 32026G38KT 1SM -SHSN BLSN SCT006 OVC015=



000
FTUS43 KDMX 071746 AAA
TAFMCW
TAF AMD
KMCW 071746Z 0718/0818 28018G25KT P6SM SCT120
     FM072300 30019G29KT 5SM -SHSN OVC020
     FM080200 32026G38KT 1SM -SHSN BLSN SCT006 OVC015=



000
FTUS43 KDMX 071731
TAFOTM
TAF
KOTM 071731Z 0718/0818 29016G23KT P6SM SCT120
     FM080100 29016G23KT 5SM -SHSN OVC020
     FM080600 32022G32KT 2SM -SHSN BLSN SCT006 OVC015=



000
FTUS43 KDMX 071731
TAFMCW
TAF
KMCW 071731Z 0718/0818 28018G25KT P6SM SCT120
     FM072300 30019G29KT 5SM -SHSN OVC020
     FM080200 32024G34KT 1SM -SHSN BLSN SCT006 OVC015=



000
FTUS43 KDMX 071731
TAFDSM
TAF
KDSM 071731Z 0718/0818 29018G25KT P6SM SCT120
     FM072300 30017G27KT 5SM -SHSN OVC020
     FM080500 32024G34KT 2SM -SHSN BLSN SCT006 OVC015=



000
FTUS43 KDMX 071731
TAFALO
TAF
KALO 071731Z 0718/0818 28015G22KT P6SM SCT120
     FM080200 30018G26KT 5SM -SHSN OVC020
     FM080500 32019G30KT 1SM -SHSN BLSN SCT006 OVC015=



000
FTUS43 KDMX 071731
TAFFOD
TAF
KFOD 071731Z 0718/0818 28012G18KT P6SM SCT120
     FM072300 30013G22KT 5SM -SHSN OVC020
     FM080400 32018G30KT 1SM -SHSN BLSN SCT006 OVC015=



000
FTUS43 KDMX 071138
TAFOTM
TAF
KOTM 071138Z 0712/0812 24014KT P6SM BKN120
     FM071600 27016G23KT P6SM BKN120
     FM080000 29017G26KT P6SM OVC020
     FM080600 31020G30KT 1SM -SHSN BLSN OVC010=



000
FTUS43 KDMX 071138
TAFDSM
TAF
KDSM 071138Z 0712/0812 27013KT P6SM BKN110
     FM071600 28017G24KT P6SM BKN110
     FM072300 30018G26KT 5SM -SHSN OVC020
     FM080200 32020G30KT 1SM -SHSN BLSN OVC008=



000
FTUS43 KDMX 071138
TAFMCW
TAF
KMCW 071138Z 0712/0812 28018G24KT P6SM BKN110
     FM072200 30020G30KT 5SM -SHSN BLSN OVC020
     FM080200 32025G35KT 1/2SM -SHSN BLSN OVC002=



000
FTUS43 KDMX 071138
TAFFOD
TAF
KFOD 071138Z 0712/0812 27011G18KT P6SM SCT120
     FM072100 29015G25KT 5SM -SHSN BLSN OVC020
     FM080200 31022G31KT 1/2SM -SHSN BLSN OVC002=



000
FTUS43 KDMX 071138
TAFALO
TAF
KALO 071138Z 0712/0812 26014G20KT P6SM BKN100
     FM072300 30017G26KT 5SM -SHSN BLSN OVC020
     FM080400 32021G31KT 1/2SM -SHSN BLSN OVC002=



000
FTUS43 KDMX 071138
TAFOTM
TAF
KOTM 071138Z 0712/0812 24014KT P6SM BKN120
     FM071600 27016G23KT P6SM BKN120
     FM080000 29017G26KT P6SM OVC020
     FM080600 31020G30KT 1SM -SHSN BLSN OVC010=



000
FTUS43 KDMX 071138
TAFFOD
TAF
KFOD 071138Z 0712/0812 27011G18KT P6SM SCT120
     FM072100 29015G25KT 5SM -SHSN BLSN OVC020
     FM080200 31022G31KT 1/2SM -SHSN BLSN OVC002=



000
FTUS43 KDMX 071138
TAFMCW
TAF
KMCW 071138Z 0712/0812 28018G24KT P6SM BKN110
     FM072200 30020G30KT 5SM -SHSN BLSN OVC020
     FM080200 32025G35KT 1/2SM -SHSN BLSN OVC002=



000
FTUS43 KDMX 071138
TAFDSM
TAF
KDSM 071138Z 0712/0812 27013KT P6SM BKN110
     FM071600 28017G24KT P6SM BKN110
     FM072300 30018G26KT 5SM -SHSN OVC020
     FM080200 32020G30KT 1SM -SHSN BLSN OVC008=



000
FTUS43 KDMX 071138
TAFALO
TAF
KALO 071138Z 0712/0812 26014G20KT P6SM BKN100
     FM072300 30017G26KT 5SM -SHSN BLSN OVC020
     FM080400 32021G31KT 1/2SM -SHSN BLSN OVC002=



    US Dept of Commerce
    National Oceanic and Atmospheric Administration
    National Weather Service
    1325 East West Highway
    Silver Spring, MD 20910
    Page Author: NWS Internet Services Team
Disclaimer
Information Quality
Credits
Glossary
Privacy Policy
Freedom of Information Act (FOIA)
About Us
Career Opportunities